Time;durP1;ratioP1;P1;durP2;ratioP2;P2;SDS_P1;SDS_P2;PMS_P1;PMS_P2;Temp;Humidity;BMP_temperature;BMP_pressure;BME280_temperature;BME280_humidity;BME280_pressure;Samples;Min_cycle;Max_cycle;Signal;HPM_P1;HPM_P2
2023/11/29 00:01:57;;;;;;;31.33;17.73;;;;;;;;;;4367952;32;318267;-86
2023/11/29 00:04:24;;;;;;;27.67;16.97;;;;;;;;;;4357249;32;317996;-88
2023/11/29 00:06:51;;;;;;;28.40;16.50;;;;;;;;;;4367908;32;318428;-88
2023/11/29 00:09:19;;;;;;;31.67;17.70;;;;;;;;;;4367185;32;318220;-87
2023/11/29 00:11:46;;;;;;;36.00;21.13;;;;;;;;;;4358944;32;318672;-88
2023/11/29 00:14:13;;;;;;;30.37;17.33;;;;;;;;;;4368675;32;318458;-87
2023/11/29 00:16:40;;;;;;;29.10;19.00;;;;;;;;;;4357680;32;318999;-88
2023/11/29 00:19:07;;;;;;;34.80;21.47;;;;;;;;;;4367633;32;317918;-89
2023/11/29 00:21:33;;;;;;;30.37;19.37;;;;;;;;;;4357513;32;318259;-86
2023/11/29 00:24:00;;;;;;;30.00;19.77;;;;;;;;;;4368308;32;318651;-87
2023/11/29 00:26:29;;;;;;;34.63;19.47;;;;;;;;;;4358612;32;318480;-86
2023/11/29 00:28:55;;;;;;;37.47;23.60;;;;;;;;;;4367102;32;333589;-86
2023/11/29 00:31:22;;;;;;;35.47;21.83;;;;;;;;;;4351114;32;329152;-89
2023/11/29 00:33:49;;;;;;;36.33;22.07;;;;;;;;;;4368639;32;317921;-88
2023/11/29 00:36:16;;;;;;;41.07;26.27;;;;;;;;;;4368921;32;318867;-88
2023/11/29 00:38:43;;;;;;;54.37;33.23;;;;;;;;;;4358149;32;318911;-87
2023/11/29 00:41:10;;;;;;;39.07;25.10;;;;;;;;;;4367431;32;318235;-88
2023/11/29 00:43:39;;;;;;;37.67;22.27;;;;;;;;;;4358317;32;318050;-87
2023/11/29 00:46:06;;;;;;;36.83;21.77;;;;;;;;;;4367007;32;318214;-86
2023/11/29 00:48:33;;;;;;;32.13;20.40;;;;;;;;;;4358118;32;318123;-87
2023/11/29 00:51:00;;;;;;;32.50;20.70;;;;;;;;;;4368781;32;318704;-88
2023/11/29 00:53:27;;;;;;;37.47;20.63;;;;;;;;;;4356805;32;318486;-87
2023/11/29 00:55:54;;;;;;;32.17;17.03;;;;;;;;;;4366696;32;317991;-87
2023/11/29 00:58:21;;;;;;;28.00;16.13;;;;;;;;;;4367007;32;318046;-87
2023/11/29 01:00:49;;;;;;;19.13;11.80;;;;;;;;;;4354079;32;418200;-87
2023/11/29 01:03:16;;;;;;;15.00;8.63;;;;;;;;;;4366993;32;317869;-87
2023/11/29 01:05:43;;;;;;;4.03;3.20;;;;;;;;;;4358214;32;316922;-88
2023/11/29 01:08:10;;;;;;;5.00;3.00;;;;;;;;;;4368358;32;316858;-88
2023/11/29 01:10:39;;;;;;;3.03;2.27;;;;;;;;;;4358447;32;316598;-87
2023/11/29 01:13:06;;;;;;;3.00;1.93;;;;;;;;;;4367033;32;316705;-87
2023/11/29 01:15:33;;;;;;;2.07;1.53;;;;;;;;;;4357277;32;316186;-87
2023/11/29 01:18:01;;;;;;;3.17;1.80;;;;;;;;;;4367093;32;315810;-86
2023/11/29 01:20:28;;;;;;;2.57;1.50;;;;;;;;;;4357381;32;316645;-88
2023/11/29 01:22:55;;;;;;;3.10;2.07;;;;;;;;;;4367366;32;316147;-87
2023/11/29 01:25:23;;;;;;;2.10;1.80;;;;;;;;;;4362799;32;317152;-87
2023/11/29 01:27:50;;;;;;;4.43;2.00;;;;;;;;;;4367944;32;316619;-90
2023/11/29 01:30:17;;;;;;;3.60;2.07;;;;;;;;;;4368119;32;316655;-89
2023/11/29 01:32:44;;;;;;;3.23;2.33;;;;;;;;;;4357774;32;316544;-88
2023/11/29 01:35:16;;;;;;;4.87;2.83;;;;;;;;;;4368332;32;315556;-88
2023/11/29 01:37:43;;;;;;;4.57;3.10;;;;;;;;;;4357284;32;316056;-87
2023/11/29 01:40:10;;;;;;;3.63;2.57;;;;;;;;;;4368052;32;316519;-87
2023/11/29 01:42:37;;;;;;;4.40;2.73;;;;;;;;;;4351064;32;315932;-88
2023/11/29 01:45:05;;;;;;;3.73;2.27;;;;;;;;;;4368169;32;316640;-87
2023/11/29 01:47:34;;;;;;;2.83;1.97;;;;;;;;;;4357262;32;316461;-87
2023/11/29 01:50:03;;;;;;;8.57;4.13;;;;;;;;;;4368983;32;316123;-89
2023/11/29 01:52:32;;;;;;;12.23;6.60;;;;;;;;;;4358408;32;316851;-88
2023/11/29 01:55:00;;;;;;;14.10;6.77;;;;;;;;;;4353694;32;317072;-88
2023/11/29 01:57:27;;;;;;;10.43;5.97;;;;;;;;;;4340733;32;357164;-87
2023/11/29 01:59:54;;;;;;;11.60;7.40;;;;;;;;;;4353166;32;317426;-86
2023/11/29 02:02:22;;;;;;;17.47;10.00;;;;;;;;;;4353093;32;317164;-85
2023/11/29 02:04:51;;;;;;;21.77;13.23;;;;;;;;;;4339976;32;417346;-87
2023/11/29 02:07:18;;;;;;;20.83;12.13;;;;;;;;;;4354032;32;318555;-88
2023/11/29 02:09:47;;;;;;;23.73;12.50;;;;;;;;;;4344246;32;317970;-87
2023/11/29 02:12:14;;;;;;;22.53;13.17;;;;;;;;;;4363776;32;318643;-88
2023/11/29 02:14:41;;;;;;;16.87;11.17;;;;;;;;;;4350077;32;317931;-87
2023/11/29 02:17:09;;;;;;;16.23;7.97;;;;;;;;;;4367879;32;317172;-89
2023/11/29 02:19:35;;;;;;;13.63;8.90;;;;;;;;;;4359812;32;316540;-88
2023/11/29 02:22:03;;;;;;;14.97;8.03;;;;;;;;;;4358439;32;318217;-87
2023/11/29 02:24:36;;;;;;;20.47;9.73;;;;;;;;;;4342927;32;317625;-88
2023/11/29 02:27:04;;;;;;;14.13;8.47;;;;;;;;;;4353474;32;317256;-88
2023/11/29 02:29:31;;;;;;;18.43;10.77;;;;;;;;;;4347985;32;316549;-87
2023/11/29 02:31:58;;;;;;;12.57;7.97;;;;;;;;;;4365127;32;318796;-87
2023/11/29 02:34:25;;;;;;;13.27;7.57;;;;;;;;;;4358379;32;317269;-88
2023/11/29 02:36:52;;;;;;;16.47;9.63;;;;;;;;;;4368590;32;317459;-87
2023/11/29 02:39:19;;;;;;;13.97;6.90;;;;;;;;;;4368442;32;336300;-88
2023/11/29 02:41:46;;;;;;;12.93;8.47;;;;;;;;;;4359576;32;317547;-88
2023/11/29 02:44:14;;;;;;;13.37;8.63;;;;;;;;;;4370117;32;317410;-87
2023/11/29 02:46:41;;;;;;;14.20;8.20;;;;;;;;;;4360760;32;317234;-87
2023/11/29 02:49:08;;;;;;;15.97;8.97;;;;;;;;;;4369281;32;358666;-87
2023/11/29 02:51:35;;;;;;;10.47;7.33;;;;;;;;;;4362428;32;317293;-88
2023/11/29 02:54:01;;;;;;;10.97;6.83;;;;;;;;;;4371897;32;317555;-87
2023/11/29 02:56:28;;;;;;;10.30;7.10;;;;;;;;;;4361596;32;317511;-87
2023/11/29 02:58:55;;;;;;;18.43;8.80;;;;;;;;;;4371607;32;317172;-87
2023/11/29 03:01:24;;;;;;;25.30;13.40;;;;;;;;;;4363863;32;317168;-87
2023/11/29 03:03:50;;;;;;;21.03;12.13;;;;;;;;;;4371428;32;318366;-87
2023/11/29 03:06:17;;;;;;;23.37;11.80;;;;;;;;;;4371563;32;318655;-86
2023/11/29 03:08:44;;;;;;;21.87;10.93;;;;;;;;;;4360835;32;317997;-87
2023/11/29 03:11:11;;;;;;;31.17;16.83;;;;;;;;;;4370471;32;318169;-87
2023/11/29 03:13:38;;;;;;;40.53;28.07;;;;;;;;;;4360876;32;318542;-87
2023/11/29 03:16:05;;;;;;;50.73;35.40;;;;;;;;;;4370664;32;317938;-87
2023/11/29 03:18:34;;;;;;;49.67;33.47;;;;;;;;;;4361615;32;318315;-86
2023/11/29 03:21:01;;;;;;;50.50;31.90;;;;;;;;;;4373529;32;317817;-86
2023/11/29 03:23:28;;;;;;;39.03;28.87;;;;;;;;;;4363353;32;318671;-85
2023/11/29 03:25:55;;;;;;;30.40;20.17;;;;;;;;;;4371504;32;318898;-87
2023/11/29 03:28:22;;;;;;;20.67;15.30;;;;;;;;;;4370767;32;318668;-87
2023/11/29 03:30:49;;;;;;;15.20;10.90;;;;;;;;;;4374783;32;318291;-87
2023/11/29 03:33:16;;;;;;;21.67;12.40;;;;;;;;;;4375368;32;317993;-86
2023/11/29 03:35:44;;;;;;;18.13;10.80;;;;;;;;;;4364816;32;317711;-87
2023/11/29 03:38:11;;;;;;;18.63;10.93;;;;;;;;;;4378379;32;318778;-86
2023/11/29 03:40:38;;;;;;;16.83;10.60;;;;;;;;;;4368331;32;317917;-86
2023/11/29 03:43:05;;;;;;;27.40;15.07;;;;;;;;;;4376256;32;317703;-87
2023/11/29 03:45:32;;;;;;;30.30;16.00;;;;;;;;;;4367094;32;317806;-86
2023/11/29 03:47:59;;;;;;;22.97;13.93;;;;;;;;;;4377474;32;333639;-87
2023/11/29 03:50:26;;;;;;;17.43;12.47;;;;;;;;;;4367967;32;343717;-88
2023/11/29 03:52:54;;;;;;;20.57;12.27;;;;;;;;;;4362903;32;317912;-87
2023/11/29 03:55:21;;;;;;;18.60;11.87;;;;;;;;;;4372683;32;318514;-88
2023/11/29 03:57:48;;;;;;;17.50;10.97;;;;;;;;;;4359764;32;418160;-86
2023/11/29 04:00:15;;;;;;;16.97;10.60;;;;;;;;;;4372741;32;317831;-87
2023/11/29 04:02:43;;;;;;;18.13;11.50;;;;;;;;;;4362098;32;318259;-87
2023/11/29 04:05:10;;;;;;;14.57;10.23;;;;;;;;;;4374347;32;318094;-87
2023/11/29 04:07:37;;;;;;;14.57;9.27;;;;;;;;;;4360026;32;318298;-87
2023/11/29 04:10:06;;;;;;;18.47;9.40;;;;;;;;;;4371775;32;316755;-87
2023/11/29 04:12:33;;;;;;;14.93;8.50;;;;;;;;;;4361318;32;317513;-86
2023/11/29 04:15:00;;;;;;;11.50;6.57;;;;;;;;;;4369877;32;317747;-87
2023/11/29 04:17:27;;;;;;;11.90;6.80;;;;;;;;;;4359870;32;317046;-88
2023/11/29 04:19:54;;;;;;;12.53;6.90;;;;;;;;;;4370974;32;336056;-90
2023/11/29 04:22:21;;;;;;;8.67;5.90;;;;;;;;;;4371793;32;317211;-88
2023/11/29 04:24:47;;;;;;;12.27;6.83;;;;;;;;;;4362549;32;415322;-88
2023/11/29 04:27:16;;;;;;;10.67;6.37;;;;;;;;;;4381076;32;317247;-87
2023/11/29 04:29:43;;;;;;;11.83;6.77;;;;;;;;;;4360308;32;317495;-87
2023/11/29 04:32:10;;;;;;;8.67;5.63;;;;;;;;;;4371932;32;317051;-86
2023/11/29 04:34:37;;;;;;;7.57;5.77;;;;;;;;;;4367365;32;316225;-87
2023/11/29 04:37:04;;;;;;;13.30;6.37;;;;;;;;;;4369536;32;316402;-88
2023/11/29 04:39:31;;;;;;;7.57;5.33;;;;;;;;;;4359278;32;317354;-87
2023/11/29 04:41:58;;;;;;;9.80;5.60;;;;;;;;;;4369988;32;316482;-87
2023/11/29 04:44:26;;;;;;;6.77;5.20;;;;;;;;;;4360975;32;336851;-87
2023/11/29 04:46:54;;;;;;;11.50;5.43;;;;;;;;;;4371816;32;316394;-87
2023/11/29 04:49:22;;;;;;;12.60;7.60;;;;;;;;;;4371461;32;317467;-88
2023/11/29 04:51:49;;;;;;;11.40;6.57;;;;;;;;;;4361195;32;416845;-87
2023/11/29 04:54:17;;;;;;;16.73;9.00;;;;;;;;;;4370614;32;317554;-87
2023/11/29 04:56:44;;;;;;;15.73;10.07;;;;;;;;;;4358528;32;316827;-86
2023/11/29 04:59:11;;;;;;;14.07;8.50;;;;;;;;;;4366966;32;317975;-87
2023/11/29 05:01:40;;;;;;;18.40;11.13;;;;;;;;;;4357867;32;317653;-87
2023/11/29 05:04:07;;;;;;;20.90;12.63;;;;;;;;;;4366729;32;318591;-87
2023/11/29 05:06:34;;;;;;;21.80;12.07;;;;;;;;;;4356468;32;320509;-87
2023/11/29 05:09:05;;;;;;;30.60;15.93;;;;;;;;;;4366445;32;318529;-87
2023/11/29 05:11:32;;;;;;;24.33;14.60;;;;;;;;;;4356895;32;318815;-88
2023/11/29 05:13:59;;;;;;;40.67;25.57;;;;;;;;;;4366818;32;318296;-87
2023/11/29 05:16:26;;;;;;;48.50;29.80;;;;;;;;;;4354816;32;338234;-91
2023/11/29 05:18:54;;;;;;;58.47;33.27;;;;;;;;;;4367706;32;318002;-87
2023/11/29 05:21:22;;;;;;;57.33;33.63;;;;;;;;;;4366790;32;318489;-87
2023/11/29 05:23:49;;;;;;;58.87;36.50;;;;;;;;;;4354705;32;417640;-87
2023/11/29 05:26:16;;;;;;;41.67;24.13;;;;;;;;;;4367572;32;318826;-87
2023/11/29 05:28:43;;;;;;;33.23;20.80;;;;;;;;;;4348397;32;318459;-86
2023/11/29 05:31:10;;;;;;;33.13;22.23;;;;;;;;;;4359346;32;318330;-87
2023/11/29 05:33:37;;;;;;;38.33;24.27;;;;;;;;;;4356341;32;317947;-90
2023/11/29 05:36:06;;;;;;;33.27;22.17;;;;;;;;;;4366988;32;318188;-88
2023/11/29 05:38:33;;;;;;;34.53;22.90;;;;;;;;;;4357649;32;318329;-87
2023/11/29 05:41:01;;;;;;;57.07;33.87;;;;;;;;;;4366991;32;318515;-88
2023/11/29 05:43:28;;;;;;;65.70;38.27;;;;;;;;;;4357026;32;317769;-86
2023/11/29 05:45:55;;;;;;;64.43;38.73;;;;;;;;;;4367174;32;318473;-87
2023/11/29 05:48:21;;;;;;;57.33;34.27;;;;;;;;;;4367389;32;318367;-86
2023/11/29 05:50:48;;;;;;;66.23;37.57;;;;;;;;;;4354712;32;417569;-87
2023/11/29 05:53:19;;;;;;;66.40;38.43;;;;;;;;;;4365186;32;318442;-86
2023/11/29 05:55:46;;;;;;;61.13;36.67;;;;;;;;;;4357301;32;317945;-88
2023/11/29 05:58:13;;;;;;;53.27;32.97;;;;;;;;;;4368078;32;318974;-87
2023/11/29 06:00:40;;;;;;;61.47;36.33;;;;;;;;;;4358855;32;318379;-86
2023/11/29 06:03:07;;;;;;;57.03;36.40;;;;;;;;;;4373523;32;318181;-88
2023/11/29 06:05:34;;;;;;;36.67;24.70;;;;;;;;;;4364388;32;318700;-88
2023/11/29 06:08:01;;;;;;;31.73;21.03;;;;;;;;;;4375576;32;317858;-89
2023/11/29 06:10:30;;;;;;;34.17;21.53;;;;;;;;;;4372019;32;318530;-89
2023/11/29 06:12:57;;;;;;;31.70;20.73;;;;;;;;;;4359626;32;343007;-89
2023/11/29 06:15:25;;;;;;;38.90;26.50;;;;;;;;;;4356674;32;401186;-88
2023/11/29 06:17:52;;;;;;;100.07;61.20;;;;;;;;;;4368983;32;318004;-90
2023/11/29 06:20:21;;;;;;;70.00;41.70;;;;;;;;;;4369705;32;319540;-89
2023/11/29 06:22:49;;;;;;;40.37;23.57;;;;;;;;;;4356283;32;416437;-87
2023/11/29 06:25:16;;;;;;;38.57;28.10;;;;;;;;;;4354771;32;318230;-89
2023/11/29 06:27:45;;;;;;;50.23;33.97;;;;;;;;;;4359919;32;318848;-89
2023/11/29 06:30:13;;;;;;;65.33;38.77;;;;;;;;;;4353969;32;317800;-86
2023/11/29 06:32:41;;;;;;;59.93;38.33;;;;;;;;;;4345650;32;317986;-89
2023/11/29 06:35:11;;;;;;;61.17;38.50;;;;;;;;;;4355250;32;318362;-88
2023/11/29 06:37:39;;;;;;;59.07;34.93;;;;;;;;;;4344635;32;318393;-88
2023/11/29 06:40:10;;;;;;;55.37;38.93;;;;;;;;;;4355134;32;318336;-88
2023/11/29 06:42:39;;;;;;;55.57;37.13;;;;;;;;;;4351628;32;318449;-86
2023/11/29 06:45:09;;;;;;;55.67;39.37;;;;;;;;;;4368151;32;343689;-87
2023/11/29 06:47:36;;;;;;;65.03;43.80;;;;;;;;;;4363610;32;317979;-90
2023/11/29 06:50:04;;;;;;;80.40;49.00;;;;;;;;;;4373227;32;318175;-87
2023/11/29 06:52:31;;;;;;;73.20;45.77;;;;;;;;;;4361912;32;318869;-86
2023/11/29 06:54:59;;;;;;;81.60;49.90;;;;;;;;;;4370642;32;317562;-84
2023/11/29 06:57:28;;;;;;;93.20;58.53;;;;;;;;;;4359334;32;317967;-84
2023/11/29 06:59:58;;;;;;;96.30;54.97;;;;;;;;;;4368772;32;318164;-91
2023/11/29 07:02:26;;;;;;;80.77;51.87;;;;;;;;;;4369433;32;325691;-86
2023/11/29 07:04:54;;;;;;;77.27;51.87;;;;;;;;;;4354919;32;418572;-88
2023/11/29 07:07:22;;;;;;;78.43;51.77;;;;;;;;;;4366788;32;317513;-86
2023/11/29 07:09:49;;;;;;;71.23;42.53;;;;;;;;;;4358195;32;318846;-87
2023/11/29 07:12:16;;;;;;;76.00;48.17;;;;;;;;;;4369513;32;318381;-89
2023/11/29 07:14:43;;;;;;;73.53;45.03;;;;;;;;;;4356611;32;317754;-89
2023/11/29 07:17:10;;;;;;;62.83;45.30;;;;;;;;;;4366532;32;317825;-89
2023/11/29 07:19:39;;;;;;;69.37;44.07;;;;;;;;;;4352026;32;318343;-89
2023/11/29 07:22:05;;;;;;;67.77;43.53;;;;;;;;;;4362783;32;318948;-89
2023/11/29 07:24:33;;;;;;;63.40;40.70;;;;;;;;;;4358843;32;318601;-88
2023/11/29 07:27:00;;;;;;;63.20;41.97;;;;;;;;;;4354498;32;317809;-88
2023/11/29 07:29:27;;;;;;;118.67;63.77;;;;;;;;;;4356723;32;318639;-88
2023/11/29 07:31:54;;;;;;;53.40;34.80;;;;;;;;;;4364895;32;319374;-86
2023/11/29 07:34:23;;;;;;;45.77;30.23;;;;;;;;;;4366467;32;318281;-87
2023/11/29 07:36:52;;;;;;;88.73;53.70;;;;;;;;;;4352869;32;419425;-85
2023/11/29 07:39:20;;;;;;;86.47;50.93;;;;;;;;;;4367163;32;318782;-85
2023/11/29 07:41:47;;;;;;;101.43;66.03;;;;;;;;;;4355988;32;352570;-86
2023/11/29 07:44:14;;;;;;;77.23;50.13;;;;;;;;;;4366771;32;319634;-88
2023/11/29 07:46:44;;;;;;;74.57;48.87;;;;;;;;;;4358229;32;317702;-85
2023/11/29 07:49:12;;;;;;;63.30;43.20;;;;;;;;;;4368358;32;318433;-85
2023/11/29 07:51:40;;;;;;;39.87;26.87;;;;;;;;;;4358724;32;318817;-87
2023/11/29 07:54:08;;;;;;;31.30;21.57;;;;;;;;;;4367398;32;355041;-87
2023/11/29 07:56:35;;;;;;;27.50;19.13;;;;;;;;;;4358298;32;318314;-87
2023/11/29 07:59:02;;;;;;;30.93;19.73;;;;;;;;;;4369160;32;317694;-87
2023/11/29 08:01:29;;;;;;;29.80;20.27;;;;;;;;;;4358744;32;318692;-87
2023/11/29 08:03:56;;;;;;;32.37;21.53;;;;;;;;;;4367711;32;317807;-86
2023/11/29 08:06:23;;;;;;;34.47;20.73;;;;;;;;;;4368340;32;318318;-87
2023/11/29 08:08:50;;;;;;;31.63;20.10;;;;;;;;;;4355715;32;419202;-87
2023/11/29 08:11:20;;;;;;;34.30;21.37;;;;;;;;;;4355753;32;318456;-88
2023/11/29 08:13:47;;;;;;;38.87;24.43;;;;;;;;;;4359245;32;317973;-88
2023/11/29 08:16:14;;;;;;;48.17;27.47;;;;;;;;;;4368323;32;318541;-88
2023/11/29 08:18:41;;;;;;;67.13;36.97;;;;;;;;;;4359462;32;318726;-87
2023/11/29 08:21:09;;;;;;;63.87;36.50;;;;;;;;;;4369122;32;318605;-88
2023/11/29 08:23:36;;;;;;;72.40;39.00;;;;;;;;;;4359067;32;344287;-88
2023/11/29 08:26:04;;;;;;;77.37;45.37;;;;;;;;;;4369444;32;326525;-88
2023/11/29 08:28:33;;;;;;;87.73;44.63;;;;;;;;;;4358028;32;318956;-85
2023/11/29 08:31:01;;;;;;;75.97;42.77;;;;;;;;;;4355264;32;318777;-89
2023/11/29 08:33:30;;;;;;;55.27;36.40;;;;;;;;;;4354330;32;383455;-88
2023/11/29 08:35:57;;;;;;;63.67;34.57;;;;;;;;;;4366773;32;318787;-89
2023/11/29 08:38:25;;;;;;;52.47;29.73;;;;;;;;;;4365837;32;318342;-87
2023/11/29 08:40:52;;;;;;;47.57;28.90;;;;;;;;;;4353480;32;418593;-87
2023/11/29 08:43:19;;;;;;;40.23;25.73;;;;;;;;;;4366099;32;317878;-88
2023/11/29 08:45:47;;;;;;;45.83;28.70;;;;;;;;;;4356105;32;318272;-87
2023/11/29 08:48:14;;;;;;;42.77;28.43;;;;;;;;;;4367939;32;317791;-88
2023/11/29 08:50:41;;;;;;;65.77;36.63;;;;;;;;;;4349933;32;318402;-89
2023/11/29 08:53:08;;;;;;;89.23;53.67;;;;;;;;;;4366806;32;317860;-88
2023/11/29 08:55:36;;;;;;;60.10;33.37;;;;;;;;;;4359183;32;318775;-89
2023/11/29 08:58:03;;;;;;;58.60;29.87;;;;;;;;;;4353687;32;317901;-87
2023/11/29 09:00:30;;;;;;;37.97;23.90;;;;;;;;;;4356336;32;318802;-88
2023/11/29 09:02:59;;;;;;;39.80;25.23;;;;;;;;;;4367038;32;353756;-87
2023/11/29 09:05:27;;;;;;;42.47;28.33;;;;;;;;;;4357206;32;318596;-89
2023/11/29 09:07:55;;;;;;;62.00;35.57;;;;;;;;;;4367814;32;318420;-87
2023/11/29 09:10:28;;;;;;;60.23;35.67;;;;;;;;;;4461979;27;319433;-88
2023/11/29 09:12:55;;;;;;;52.00;32.23;;;;;;;;;;4353998;32;417456;-87
2023/11/29 09:15:22;;;;;;;45.30;25.43;;;;;;;;;;4367243;32;317733;-87
2023/11/29 09:17:50;;;;;;;40.57;23.67;;;;;;;;;;4357452;32;317752;-88
2023/11/29 09:20:19;;;;;;;46.13;27.87;;;;;;;;;;4365766;32;317630;-86
2023/11/29 09:22:46;;;;;;;46.20;23.93;;;;;;;;;;4355923;32;318230;-87
2023/11/29 09:25:13;;;;;;;36.97;24.10;;;;;;;;;;4363242;32;318329;-88
2023/11/29 09:27:41;;;;;;;50.73;30.43;;;;;;;;;;4348605;32;318217;-88
2023/11/29 09:33:30;;;;;;;50.23;32.93;;;;;;;;;;4357839;32;388451;-87
2023/11/29 09:35:59;;;;;;;34.70;23.07;;;;;;;;;;4369570;32;317745;-84
2023/11/29 09:38:27;;;;;;;35.83;25.23;;;;;;;;;;4359571;32;318483;-89
2023/11/29 09:40:54;;;;;;;43.57;26.13;;;;;;;;;;4370331;32;318235;-85
2023/11/29 09:43:21;;;;;;;38.33;25.33;;;;;;;;;;4369781;32;318399;-84
2023/11/29 09:45:50;;;;;;;59.73;34.23;;;;;;;;;;4359995;32;318299;-86
2023/11/29 09:48:17;;;;;;;49.27;29.80;;;;;;;;;;4370041;32;318580;-83
2023/11/29 09:50:46;;;;;;;52.50;31.47;;;;;;;;;;4359745;32;318367;-86
2023/11/29 09:53:15;;;;;;;40.47;28.33;;;;;;;;;;4372254;32;317807;-85
2023/11/29 09:55:43;;;;;;;57.43;31.00;;;;;;;;;;4365172;32;317676;-85
2023/11/29 09:58:11;;;;;;;209.47;116.90;;;;;;;;;;4374425;32;318045;-87
2023/11/29 10:00:39;;;;;;;103.70;59.50;;;;;;;;;;4360940;32;319848;-84
2023/11/29 10:03:14;;;;;;;55.73;34.80;;;;;;;;;;4373201;32;318794;-84
2023/11/29 10:05:46;;;;;;;114.77;52.20;;;;;;;;;;4360652;32;317741;-86
2023/11/29 10:08:29;;;;;;;62.57;35.03;;;;;;;;;;4454898;31;20375;-78
2023/11/29 10:10:56;;;;;;;40.83;24.87;;;;;;;;;;4428595;32;317544;-80
2023/11/29 10:13:23;;;;;;;41.80;25.83;;;;;;;;;;4424578;32;319521;-77
2023/11/29 10:15:51;;;;;;;125.17;56.07;;;;;;;;;;4401076;32;417349;-80
2023/11/29 10:18:19;;;;;;;96.83;48.33;;;;;;;;;;4414175;32;337199;-80
2023/11/29 10:20:46;;;;;;;35.83;23.33;;;;;;;;;;4405085;32;351853;-77
2023/11/29 10:25:51;;;;;;;40.43;26.73;;;;;;;;;;2920107;30;317668;-87
2023/11/29 10:31:43;;;;;;;37.63;23.87;;;;;;;;;;4334589;32;387089;-89
2023/11/29 10:34:18;;;;;;;29.70;19.70;;;;;;;;;;4355847;32;316807;-88
2023/11/29 10:36:48;;;;;;;19.30;12.90;;;;;;;;;;4346652;32;317586;-89
2023/11/29 10:39:18;;;;;;;61.43;33.50;;;;;;;;;;4356508;32;318138;-87
2023/11/29 10:41:55;;;;;;;70.17;34.33;;;;;;;;;;4345857;32;317859;-91
2023/11/29 10:44:24;;;;;;;16.90;11.83;;;;;;;;;;4357256;32;317809;-85
2023/11/29 10:46:54;;;;;;;145.57;75.80;;;;;;;;;;4347529;32;417221;-88
2023/11/29 10:56:10;;;;;;;27.50;18.60;;;;;;;;;;4342637;32;389399;-88
2023/11/29 11:02:02;;;;;;;43.13;27.90;;;;;;;;;;4341791;32;388881;-86
2023/11/29 11:04:33;;;;;;;40.27;26.30;;;;;;;;;;4344349;32;318048;-85
2023/11/29 11:07:02;;;;;;;38.37;25.97;;;;;;;;;;4353171;32;317745;-86
2023/11/29 11:09:40;;;;;;;37.10;26.80;;;;;;;;;;4342185;32;316646;-86
2023/11/29 11:12:09;;;;;;;34.90;24.47;;;;;;;;;;4358309;32;316437;-84
2023/11/29 11:15:15;;;;;;;31.67;23.57;;;;;;;;;;4454903;31;20367;-81
2023/11/29 11:17:43;;;;;;;32.27;23.83;;;;;;;;;;4420380;32;318294;-78
2023/11/29 11:20:11;;;;;;;30.73;23.40;;;;;;;;;;4426222;32;318364;-78
2023/11/29 11:22:43;;;;;;;33.10;22.50;;;;;;;;;;4438611;32;318247;-78
2023/11/29 11:25:12;;;;;;;31.10;21.93;;;;;;;;;;4436742;32;318202;-79
2023/11/29 11:27:40;;;;;;;33.70;23.23;;;;;;;;;;4427597;32;318104;-75
2023/11/29 11:30:42;;;;;;;32.43;23.23;;;;;;;;;;4439381;32;318327;-76
2023/11/29 11:33:11;;;;;;;37.17;25.77;;;;;;;;;;4416992;32;418703;-76
2023/11/29 11:35:37;;;;;;;35.97;25.33;;;;;;;;;;4419620;32;319458;-79
2023/11/29 11:38:11;;;;;;;40.70;27.67;;;;;;;;;;4429883;32;319443;-75
2023/11/29 11:40:40;;;;;;;34.27;23.40;;;;;;;;;;4418786;32;319388;-75
2023/11/29 11:43:09;;;;;;;28.87;20.57;;;;;;;;;;4419234;32;319576;-74
2023/11/29 11:45:37;;;;;;;30.67;18.63;;;;;;;;;;4428261;32;317663;-77
2023/11/29 11:48:06;;;;;;;25.73;18.43;;;;;;;;;;4417167;32;389274;-75
2023/11/29 11:50:33;;;;;;;34.90;19.93;;;;;;;;;;4428297;32;318534;-79
2023/11/29 11:53:03;;;;;;;23.57;15.83;;;;;;;;;;4429265;32;317087;-75
2023/11/29 11:55:30;;;;;;;18.80;14.10;;;;;;;;;;4415395;32;419294;-74
2023/11/29 11:57:59;;;;;;;12.00;10.30;;;;;;;;;;4429381;32;318361;-74
2023/11/29 12:00:28;;;;;;;19.63;8.63;;;;;;;;;;4425013;32;417518;-73
2023/11/29 12:02:58;;;;;;;14.87;9.13;;;;;;;;;;4437224;32;317285;-72
2023/11/29 12:05:25;;;;;;;10.93;7.50;;;;;;;;;;4426029;32;317491;-77
2023/11/29 12:07:52;;;;;;;10.27;7.33;;;;;;;;;;4435375;32;317550;-76
2023/11/29 12:10:19;;;;;;;11.57;8.97;;;;;;;;;;4427365;32;317577;-74
2023/11/29 12:12:46;;;;;;;13.73;10.93;;;;;;;;;;4438167;32;317328;-75
2023/11/29 12:15:15;;;;;;;23.60;15.50;;;;;;;;;;4428192;32;318592;-74
2023/11/29 12:17:43;;;;;;;15.37;8.50;;;;;;;;;;4433806;32;317838;-77
2023/11/29 12:20:12;;;;;;;15.10;7.40;;;;;;;;;;4417583;32;321742;-79
2023/11/29 12:22:44;;;;;;;14.23;7.67;;;;;;;;;;4429156;32;316670;-75
2023/11/29 12:25:13;;;;;;;11.20;7.63;;;;;;;;;;4413443;32;317472;-78
2023/11/29 12:27:41;;;;;;;20.53;10.70;;;;;;;;;;4417265;32;346130;-79
2023/11/29 12:30:11;;;;;;;8.57;6.30;;;;;;;;;;4407600;32;318553;-75
2023/11/29 12:32:39;;;;;;;10.23;5.20;;;;;;;;;;4417639;32;327960;-76
2023/11/29 12:35:08;;;;;;;6.73;4.00;;;;;;;;;;4374576;27;317325;-76
2023/11/29 12:37:37;;;;;;;8.17;5.30;;;;;;;;;;4372514;32;316249;-79
2023/11/29 12:40:05;;;;;;;7.73;5.13;;;;;;;;;;4362542;32;316204;-74
2023/11/29 12:42:33;;;;;;;12.77;6.67;;;;;;;;;;4372925;32;342548;-76
2023/11/29 12:45:00;;;;;;;9.63;6.40;;;;;;;;;;4372557;32;317559;-77
2023/11/29 12:47:31;;;;;;;6.00;4.10;;;;;;;;;;4360822;32;416549;-75
2023/11/29 12:49:58;;;;;;;8.70;3.50;;;;;;;;;;4373463;32;316336;-75
2023/11/29 12:52:26;;;;;;;11.20;3.97;;;;;;;;;;4361843;32;336843;-79
2023/11/29 12:54:54;;;;;;;7.73;3.50;;;;;;;;;;4373231;32;317512;-75
2023/11/29 12:57:21;;;;;;;5.73;4.27;;;;;;;;;;4362417;32;316429;-74
2023/11/29 12:59:52;;;;;;;6.07;3.23;;;;;;;;;;4372019;32;316143;-78
2023/11/29 13:02:18;;;;;;;6.90;4.17;;;;;;;;;;4363306;32;316230;-75
2023/11/29 13:04:45;;;;;;;8.50;4.90;;;;;;;;;;4373302;32;316288;-76
2023/11/29 13:07:15;;;;;;;8.80;5.10;;;;;;;;;;4363600;32;316295;-79
2023/11/29 13:09:42;;;;;;;12.83;7.57;;;;;;;;;;4373088;32;316145;-75
2023/11/29 13:12:10;;;;;;;16.83;7.27;;;;;;;;;;4363161;32;317201;-78
2023/11/29 13:14:41;;;;;;;13.73;8.13;;;;;;;;;;4372133;32;317318;-75
2023/11/29 13:17:12;;;;;;;16.47;9.43;;;;;;;;;;4363156;32;317183;-75
2023/11/29 13:19:39;;;;;;;22.33;12.67;;;;;;;;;;4373334;32;317307;-74
2023/11/29 13:22:06;;;;;;;24.27;12.83;;;;;;;;;;4363083;32;318176;-74
2023/11/29 13:24:33;;;;;;;16.40;9.73;;;;;;;;;;4372896;32;318258;-76
2023/11/29 13:27:00;;;;;;;11.17;8.13;;;;;;;;;;4373053;32;317093;-78
2023/11/29 13:29:29;;;;;;;10.57;5.67;;;;;;;;;;4359771;32;418450;-78
2023/11/29 13:31:56;;;;;;;7.20;4.03;;;;;;;;;;4371719;32;317344;-79
2023/11/29 13:34:24;;;;;;;5.53;3.23;;;;;;;;;;4361379;32;316674;-80
2023/11/29 13:36:51;;;;;;;8.73;4.07;;;;;;;;;;4371253;32;316103;-79
2023/11/29 13:39:21;;;;;;;6.43;4.30;;;;;;;;;;4361654;32;316082;-81
2023/11/29 13:41:48;;;;;;;6.50;3.20;;;;;;;;;;4372602;32;316176;-79
2023/11/29 13:44:16;;;;;;;2.93;2.20;;;;;;;;;;4362713;32;317337;-77
2023/11/29 13:46:44;;;;;;;7.03;4.50;;;;;;;;;;4370392;32;316636;-77
2023/11/29 13:49:11;;;;;;;12.33;7.17;;;;;;;;;;4361284;32;317191;-77
2023/11/29 13:51:38;;;;;;;13.97;7.13;;;;;;;;;;4371343;32;317371;-81
2023/11/29 13:54:05;;;;;;;14.60;7.33;;;;;;;;;;4361259;32;318288;-75
2023/11/29 13:56:32;;;;;;;9.57;5.70;;;;;;;;;;4372529;32;318386;-79
2023/11/29 13:59:00;;;;;;;21.33;10.40;;;;;;;;;;4372413;32;317267;-80
2023/11/29 14:01:28;;;;;;;30.40;13.90;;;;;;;;;;4358302;32;418669;-78
2023/11/29 14:03:56;;;;;;;33.83;16.47;;;;;;;;;;4372040;32;333823;-78
2023/11/29 14:06:23;;;;;;;34.27;13.80;;;;;;;;;;4361313;32;318263;-79
2023/11/29 14:08:50;;;;;;;9.53;6.27;;;;;;;;;;4371184;32;318263;-79
2023/11/29 14:11:17;;;;;;;51.40;35.13;;;;;;;;;;4361252;32;316240;-79
2023/11/29 14:13:44;;;;;;;52.97;32.00;;;;;;;;;;4372079;32;317601;-77
2023/11/29 14:16:12;;;;;;;91.40;60.73;;;;;;;;;;4362068;32;318120;-78
2023/11/29 14:18:39;;;;;;;50.03;35.50;;;;;;;;;;4370903;32;318515;-78
2023/11/29 14:21:08;;;;;;;31.43;21.33;;;;;;;;;;4360859;32;318491;-78
2023/11/29 14:23:35;;;;;;;13.47;9.00;;;;;;;;;;4370729;32;317689;-78
2023/11/29 14:26:02;;;;;;;16.27;10.27;;;;;;;;;;4361392;32;317480;-76
2023/11/29 14:28:34;;;;;;;24.10;13.67;;;;;;;;;;4370504;32;317818;-78
2023/11/29 14:31:01;;;;;;;30.17;17.93;;;;;;;;;;4371721;32;317568;-78
2023/11/29 14:33:28;;;;;;;27.33;14.80;;;;;;;;;;4359123;32;419530;-80